Time;durP1;ratioP1;P1;durP2;ratioP2;P2;SDS_P1;SDS_P2;PMS_P1;PMS_P2;Temp;Humidity;BMP_temperature;BMP_pressure;BME280_temperature;BME280_humidity;BME280_pressure;Samples;Min_cycle;Max_cycle;Signal;HPM_P1;HPM_P2
2021/12/16 20:01:21;;;;;;;0.30;0.30;;;3.70;99.90;;;;;;5090671;28;21062;-71
2021/12/16 20:03:54;;;;;;;0.40;0.40;;;3.90;97.90;;;;;;5091005;28;20646;-68
2021/12/16 20:06:20;;;;;;;0.40;0.40;;;4.10;97.80;;;;;;5091270;28;20191;-69
2021/12/16 20:08:49;;;;;;;0.40;0.40;;;4.40;99.90;;;;;;5090549;28;20263;-72
2021/12/16 20:11:21;;;;;;;0.30;0.30;;;4.50;99.90;;;;;;5091260;28;20214;-69
2021/12/16 20:13:48;;;;;;;0.40;0.40;;;5.00;97.60;;;;;;5090918;28;20176;-67
2021/12/16 20:16:19;;;;;;;0.40;0.40;;;4.20;97.20;;;;;;5090996;28;20177;-69
2021/12/16 20:18:49;;;;;;;0.40;0.40;;;3.90;97.50;;;;;;5089373;28;20267;-70
2021/12/16 20:21:22;;;;;;;0.75;0.75;;;3.90;97.80;;;;;;5091662;28;20223;-70
2021/12/16 20:23:49;;;;;;;0.40;0.40;;;3.90;97.70;;;;;;5090115;28;20607;-67
2021/12/16 20:26:24;;;;;;;0.40;0.40;;;3.50;97.80;;;;;;5090522;28;20176;-67
2021/12/16 20:29:11;;;;;;;0.40;0.40;;;3.30;98.30;;;;;;5090232;28;20551;-67
2021/12/16 20:31:52;;;;;;;0.30;0.30;;;3.50;98.20;;;;;;5090928;28;20544;-67
2021/12/16 20:34:23;;;;;;;0.30;0.30;;;3.80;97.80;;;;;;5091089;28;20158;-70
2021/12/16 20:36:55;;;;;;;0.40;0.40;;;3.50;97.70;;;;;;5090383;28;20172;-69
2021/12/16 20:39:43;;;;;;;0.30;0.30;;;3.40;98.10;;;;;;5090128;28;20535;-69
2021/12/16 20:42:14;;;;;;;0.30;0.30;;;3.50;98.50;;;;;;5090665;28;20195;-69
2021/12/16 20:44:43;;;;;;;0.35;0.35;;;3.50;98.30;;;;;;5090889;28;20497;-69
2021/12/16 20:47:13;;;;;;;0.40;0.40;;;3.90;98.10;;;;;;5090337;28;20176;-67
2021/12/16 20:49:41;;;;;;;0.30;0.30;;;4.00;97.50;;;;;;5089845;28;20252;-68
2021/12/16 20:52:24;;;;;;;0.30;0.30;;;4.20;97.40;;;;;;5090326;28;20708;-67
2021/12/16 20:54:59;;;;;;;0.30;0.30;;;4.30;97.10;;;;;;5090295;28;20165;-69
2021/12/16 20:57:26;;;;;;;0.38;0.38;;;4.40;96.80;;;;;;5090340;28;20196;-69
2021/12/16 20:59:54;;;;;;;0.40;0.40;;;4.30;96.70;;;;;;5089359;28;20236;-69
2021/12/16 21:02:31;;;;;;;0.40;0.40;;;4.30;96.90;;;;;;5089967;28;20189;-69
2021/12/16 21:04:59;;;;;;;0.30;0.30;;;4.20;96.80;;;;;;5090223;28;20165;-70
2021/12/16 21:07:25;;;;;;;0.30;0.30;;;4.20;97.00;;;;;;5090241;28;20169;-69
2021/12/16 21:09:52;;;;;;;0.40;0.40;;;4.30;97.00;;;;;;5087883;28;20541;-69
2021/12/16 21:12:20;;;;;;;0.40;0.40;;;4.30;96.80;;;;;;5078101;28;20721;-69
2021/12/16 21:14:49;;;;;;;0.40;0.40;;;4.40;96.80;;;;;;5076467;28;20177;-69
2021/12/16 21:17:15;;;;;;;0.40;0.40;;;4.40;96.80;;;;;;5076351;28;20165;-69
2021/12/16 21:19:45;;;;;;;0.30;0.30;;;4.30;96.80;;;;;;5076327;28;20212;-68
2021/12/16 21:22:12;;;;;;;0.32;0.32;;;4.40;96.80;;;;;;5075974;28;20217;-69
2021/12/16 21:24:38;;;;;;;0.30;0.30;;;4.40;96.90;;;;;;5075931;28;20170;-69
2021/12/16 21:27:04;;;;;;;0.40;0.40;;;4.40;96.70;;;;;;5076235;28;20170;-69
2021/12/16 21:29:30;;;;;;;0.30;0.30;;;4.30;96.80;;;;;;5074355;28;20473;-73
2021/12/16 21:31:56;;;;;;;0.30;0.30;;;4.30;97.00;;;;;;5075841;28;20428;-69
2021/12/16 21:34:34;;;;;;;0.30;0.30;;;4.20;97.20;;;;;;5076299;28;20215;-69
2021/12/16 21:37:07;;;;;;;0.40;0.40;;;4.20;97.40;;;;;;5076344;28;20173;-72
2021/12/16 21:39:33;;;;;;;0.30;0.30;;;4.20;97.40;;;;;;5075695;28;20197;-73
2021/12/16 21:41:59;;;;;;;0.30;0.30;;;4.20;97.50;;;;;;5075804;28;20189;-68
2021/12/16 21:44:25;;;;;;;0.40;0.40;;;4.30;97.70;;;;;;5075975;28;20399;-68
2021/12/16 21:46:51;;;;;;;0.40;0.40;;;4.40;97.70;;;;;;5076122;28;20169;-68
2021/12/16 21:49:17;;;;;;;0.30;0.30;;;4.40;97.50;;;;;;5074844;28;20177;-68
2021/12/16 21:51:43;;;;;;;0.40;0.40;;;4.50;97.30;;;;;;5075233;28;20189;-68
2021/12/16 21:54:09;;;;;;;0.33;0.33;;;4.50;97.20;;;;;;5074119;28;20174;-68
2021/12/16 21:56:35;;;;;;;0.40;0.40;;;4.30;97.10;;;;;;5074519;28;20495;-68
2021/12/16 21:59:02;;;;;;;0.30;0.30;;;4.40;97.50;;;;;;5072480;28;20588;-67
2021/12/16 22:01:28;;;;;;;0.40;0.40;;;4.30;97.00;;;;;;5074652;28;20186;-67
2021/12/16 22:03:57;;;;;;;0.40;0.40;;;4.30;96.90;;;;;;5074544;28;20176;-67
2021/12/16 22:06:25;;;;;;;0.40;0.40;;;4.50;96.90;;;;;;5074440;28;20411;-67
2021/12/16 22:08:51;;;;;;;0.40;0.40;;;4.70;96.70;;;;;;5074256;28;20165;-67
2021/12/16 22:11:17;;;;;;;0.30;0.30;;;4.80;96.40;;;;;;5074720;28;20648;-67
2021/12/16 22:13:45;;;;;;;0.40;0.40;;;4.90;96.10;;;;;;5075500;28;20174;-67
2021/12/16 22:16:12;;;;;;;0.30;0.30;;;4.80;96.10;;;;;;5075543;28;20162;-67
2021/12/16 22:18:40;;;;;;;0.40;0.40;;;4.70;96.10;;;;;;5074403;28;20252;-67
2021/12/16 22:21:14;;;;;;;0.40;0.40;;;4.50;96.60;;;;;;5074998;28;20665;-67
2021/12/16 22:23:41;;;;;;;0.40;0.40;;;4.50;96.80;;;;;;5074178;28;20186;-68
2021/12/16 22:26:07;;;;;;;0.40;0.40;;;4.50;96.90;;;;;;5075159;28;20169;-68
2021/12/16 22:28:34;;;;;;;0.30;0.30;;;4.50;96.80;;;;;;5074453;28;20194;-68
2021/12/16 22:31:00;;;;;;;0.40;0.40;;;4.50;96.80;;;;;;5075197;28;20706;-68
2021/12/16 22:33:28;;;;;;;0.37;0.37;;;4.50;96.80;;;;;;5074790;28;20244;-68
2021/12/16 22:35:54;;;;;;;0.40;0.40;;;4.40;96.90;;;;;;5073406;28;20423;-68
2021/12/16 22:38:23;;;;;;;0.40;0.40;;;4.40;96.90;;;;;;5074297;28;20576;-68
2021/12/16 22:40:50;;;;;;;0.40;0.40;;;4.40;97.00;;;;;;5074755;28;20214;-68
2021/12/16 22:43:16;;;;;;;0.40;0.40;;;4.10;97.30;;;;;;5074924;28;20247;-68
2021/12/16 22:45:42;;;;;;;0.40;0.40;;;4.00;98.10;;;;;;5074957;28;20169;-68
2021/12/16 22:48:08;;;;;;;0.40;0.40;;;4.10;98.20;;;;;;5073906;28;20396;-68
2021/12/16 22:50:34;;;;;;;0.40;0.40;;;4.00;97.90;;;;;;5074475;28;20265;-68
2021/12/16 22:53:00;;;;;;;0.40;0.40;;;4.00;98.30;;;;;;5074541;28;20193;-68
2021/12/16 22:55:27;;;;;;;0.40;0.40;;;3.90;98.10;;;;;;5074811;28;20178;-67
2021/12/16 22:57:53;;;;;;;0.40;0.40;;;3.90;98.60;;;;;;5074538;28;20431;-68
2021/12/16 23:00:30;;;;;;;0.40;0.40;;;4.00;98.50;;;;;;5073871;28;20583;-67
2021/12/16 23:02:58;;;;;;;0.40;0.40;;;4.20;98.20;;;;;;5074375;28;20181;-68
2021/12/16 23:05:24;;;;;;;0.40;0.40;;;4.10;98.00;;;;;;5074404;28;20252;-68
2021/12/16 23:07:50;;;;;;;0.40;0.40;;;4.10;98.10;;;;;;5073897;28;20190;-68
2021/12/16 23:10:17;;;;;;;0.40;0.40;;;4.00;98.10;;;;;;5074111;28;20619;-68
2021/12/16 23:12:48;;;;;;;0.35;0.35;;;4.00;98.50;;;;;;5074200;28;20427;-68
2021/12/16 23:23:45;;;;;;;0.40;0.40;;;4.20;98.30;;;;;;5089682;28;20180;-68
2021/12/16 23:26:15;;;;;;;0.40;0.40;;;4.10;98.60;;;;;;5073970;28;20646;-67
2021/12/16 23:28:42;;;;;;;0.30;0.30;;;3.90;98.70;;;;;;5073363;28;20201;-68
2021/12/16 23:31:08;;;;;;;0.30;0.30;;;4.00;99.10;;;;;;5073854;28;20179;-67
2021/12/16 23:33:34;;;;;;;0.40;0.40;;;3.80;99.40;;;;;;5074183;28;20168;-68
2021/12/16 23:36:01;;;;;;;0.40;0.40;;;3.90;99.60;;;;;;5073625;28;20628;-68
2021/12/16 23:38:46;;;;;;;0.40;0.40;;;4.00;99.30;;;;;;5073048;28;20172;-68
2021/12/16 23:54:34;;;;;;;0.30;0.30;;;4.30;99.40;;;;;;5073795;28;20180;-68
2021/12/16 23:57:01;;;;;;;0.40;0.40;;;4.40;99.10;;;;;;5073458;28;20630;-68
2021/12/16 23:59:29;;;;;;;0.38;0.38;;;4.40;99.00;;;;;;5072800;28;20459;-67
